createdAt,value
2019-03-19T00:01:34.703Z,34.87
2019-03-19T00:04:02.241Z,35.30
2019-03-19T00:06:29.845Z,33.43
2019-03-19T00:08:57.717Z,33.87
2019-03-19T00:11:25.286Z,34.43
2019-03-19T00:13:53.388Z,32.20
2019-03-19T00:16:20.980Z,31.80
2019-03-19T00:18:48.535Z,29.87
2019-03-19T00:21:16.093Z,31.00
2019-03-19T00:23:44.024Z,32.70
2019-03-19T00:26:11.794Z,30.73
2019-03-19T00:28:39.354Z,32.77
2019-03-19T00:31:08.072Z,35.13
2019-03-19T00:33:35.748Z,43.07
2019-03-19T00:36:03.641Z,46.67
2019-03-19T00:38:31.200Z,45.10
2019-03-19T00:40:58.657Z,42.93
2019-03-19T00:43:26.213Z,36.67
2019-03-19T00:45:54.006Z,33.77
2019-03-19T00:48:21.565Z,29.20
2019-03-19T00:50:49.131Z,28.07
2019-03-19T00:53:17.403Z,30.47
2019-03-19T00:55:44.849Z,31.40
2019-03-19T00:58:12.309Z,34.37
2019-03-19T01:00:40.168Z,27.63
2019-03-19T01:03:07.934Z,26.93
2019-03-19T01:05:35.735Z,25.17
2019-03-19T01:08:03.501Z,25.57
2019-03-19T01:10:31.182Z,22.80
2019-03-19T01:12:59.086Z,22.03
2019-03-19T01:15:26.658Z,21.53
2019-03-19T01:17:54.940Z,21.47
2019-03-19T01:20:22.391Z,22.87
2019-03-19T01:22:50.066Z,21.70
2019-03-19T01:25:18.784Z,21.73
2019-03-19T01:27:46.669Z,22.67
2019-03-19T01:30:14.214Z,25.83
2019-03-19T01:32:41.821Z,24.53
2019-03-19T01:35:09.281Z,26.43
2019-03-19T01:37:36.780Z,28.93
2019-03-19T01:40:04.706Z,30.90
2019-03-19T01:42:33.168Z,37.97
2019-03-19T01:45:00.737Z,39.17
2019-03-19T01:47:28.311Z,42.87
2019-03-19T01:49:55.873Z,44.23
2019-03-19T01:52:23.458Z,42.33
2019-03-19T01:54:51.025Z,45.33
2019-03-19T01:57:18.582Z,40.27
2019-03-19T01:59:46.077Z,40.43
2019-03-19T02:04:55.454Z,36.33
2019-03-19T02:07:23.702Z,32.20
2019-03-19T02:09:51.295Z,33.70
2019-03-19T02:12:18.970Z,33.90
2019-03-19T02:14:46.994Z,37.63
2019-03-19T02:17:14.567Z,34.93
2019-03-19T02:19:42.151Z,29.37
2019-03-19T02:22:09.685Z,28.07
2019-03-19T02:24:37.287Z,26.90
2019-03-19T02:27:04.842Z,27.43
2019-03-19T02:29:32.429Z,24.97
2019-03-19T02:32:00.391Z,24.33
2019-03-19T02:34:28.345Z,23.77
2019-03-19T02:36:55.924Z,24.97
2019-03-19T02:39:23.611Z,27.40
2019-03-19T02:41:51.471Z,30.97
2019-03-19T02:44:19.059Z,33.77
2019-03-19T02:46:47.735Z,33.97
2019-03-19T02:49:16.170Z,34.50
2019-03-19T02:51:43.753Z,35.70
2019-03-19T02:54:11.325Z,39.30
2019-03-19T02:56:38.904Z,40.87
2019-03-19T02:59:06.464Z,42.20
2019-03-19T03:01:33.950Z,44.17
2019-03-19T03:04:01.512Z,38.40
2019-03-19T03:06:29.081Z,40.63
2019-03-19T03:08:56.968Z,39.07
2019-03-19T03:11:24.779Z,42.03
2019-03-19T03:13:52.337Z,39.17
2019-03-19T03:16:20.025Z,60.00
2019-03-19T03:18:47.603Z,46.20
2019-03-19T03:21:15.502Z,40.40
2019-03-19T03:23:43.109Z,43.67
2019-03-19T03:26:10.639Z,50.23
2019-03-19T03:28:38.582Z,54.63
2019-03-19T03:31:06.166Z,57.20
2019-03-19T03:33:34.000Z,55.97
2019-03-19T03:36:01.887Z,61.67
2019-03-19T03:38:29.425Z,59.93
2019-03-19T03:40:57.283Z,61.93
2019-03-19T03:43:24.737Z,56.47
2019-03-19T03:45:52.391Z,52.07
2019-03-19T03:48:19.861Z,49.10
2019-03-19T03:50:48.636Z,45.17
2019-03-19T03:53:16.349Z,42.20
2019-03-19T03:55:43.896Z,42.07
2019-03-19T03:58:11.474Z,41.43
2019-03-19T04:00:39.433Z,40.80
2019-03-19T04:03:07.664Z,39.80
2019-03-19T04:05:35.477Z,41.70
2019-03-19T04:08:03.230Z,42.90
2019-03-19T04:10:30.914Z,51.27
2019-03-19T04:12:58.470Z,47.10
2019-03-19T04:15:27.132Z,44.00
2019-03-19T04:17:54.696Z,43.87
2019-03-19T04:20:22.475Z,41.80
2019-03-19T04:22:50.038Z,42.87
2019-03-19T04:25:17.628Z,42.37
2019-03-19T04:27:45.219Z,41.27
2019-03-19T04:30:12.834Z,42.17
2019-03-19T04:32:40.712Z,42.37
2019-03-19T04:35:08.408Z,50.73
2019-03-19T04:37:36.007Z,59.40
2019-03-19T04:40:04.449Z,56.67
2019-03-19T04:42:32.042Z,54.80
2019-03-19T04:44:59.621Z,58.23
2019-03-19T04:47:27.225Z,56.10
2019-03-19T04:49:54.771Z,57.93
2019-03-19T04:52:22.362Z,56.90
2019-03-19T04:54:49.918Z,57.67
2019-03-19T04:57:26.367Z,60.80
2019-03-19T04:59:46.853Z,57.57
2019-03-19T05:02:14.644Z,58.13
2019-03-19T05:04:42.214Z,61.77
2019-03-19T05:07:10.973Z,66.17
2019-03-19T05:09:38.551Z,66.77
2019-03-19T05:12:06.153Z,65.87
2019-03-19T05:14:33.608Z,63.40
2019-03-19T05:17:01.525Z,62.60
2019-03-19T05:19:29.067Z,67.63
2019-03-19T05:21:56.544Z,65.40
2019-03-19T05:24:24.327Z,74.07
2019-03-19T05:26:52.359Z,75.20
2019-03-19T05:29:19.905Z,75.70
2019-03-19T05:31:47.465Z,79.13
2019-03-19T05:34:15.127Z,80.03
2019-03-19T05:36:43.069Z,85.10
2019-03-19T05:39:10.627Z,83.67
2019-03-19T05:41:38.220Z,71.40
2019-03-19T05:44:05.880Z,73.00
2019-03-19T05:46:34.221Z,61.17
2019-03-19T05:49:01.687Z,55.63
2019-03-19T05:51:29.275Z,54.43
2019-03-19T05:53:56.902Z,55.43
2019-03-19T05:56:24.552Z,54.20
2019-03-19T05:58:52.320Z,53.73
2019-03-19T06:01:19.822Z,52.57
2019-03-19T06:03:48.341Z,51.23
2019-03-19T06:06:15.938Z,52.50
2019-03-19T06:08:43.623Z,51.87
2019-03-19T06:11:11.205Z,51.43
2019-03-19T06:13:38.788Z,52.87
2019-03-19T06:16:06.665Z,59.80
2019-03-19T06:18:35.378Z,66.10
2019-03-19T06:21:03.303Z,70.40
2019-03-19T06:23:31.083Z,70.53
2019-03-19T06:25:58.961Z,75.57
2019-03-19T06:28:26.928Z,82.87
2019-03-19T06:30:54.504Z,84.60
2019-03-19T06:33:22.075Z,88.13
2019-03-19T06:35:49.844Z,86.50
2019-03-19T06:38:17.410Z,84.30
2019-03-19T06:40:44.941Z,85.03
2019-03-19T06:43:12.425Z,86.10
2019-03-19T06:45:40.175Z,81.93
2019-03-19T06:48:08.019Z,80.67
2019-03-19T06:50:44.708Z,73.37
2019-03-19T06:53:04.861Z,67.70
2019-03-19T06:55:32.418Z,58.73
2019-03-19T06:58:10.551Z,60.57
2019-03-19T07:00:30.470Z,73.40
2019-03-19T07:02:58.497Z,102.73
2019-03-19T07:05:26.066Z,84.80
2019-03-19T07:07:53.663Z,63.47
2019-03-19T07:10:21.218Z,53.60
2019-03-19T07:12:48.701Z,40.50
2019-03-19T07:15:16.576Z,35.67
2019-03-19T07:17:44.167Z,31.03
2019-03-19T07:20:12.810Z,26.97
2019-03-19T07:22:40.686Z,24.13
2019-03-19T07:25:08.643Z,23.37
2019-03-19T07:27:36.109Z,21.00
2019-03-19T07:30:05.346Z,17.47
2019-03-19T07:32:33.162Z,18.33
2019-03-19T07:35:00.754Z,15.17
2019-03-19T07:37:28.282Z,15.30
2019-03-19T07:39:56.183Z,16.30
2019-03-19T07:42:23.752Z,15.20
2019-03-19T07:44:51.333Z,16.17
2019-03-19T07:47:18.965Z,16.73
2019-03-19T07:49:46.562Z,14.70
2019-03-19T07:52:14.131Z,16.37
2019-03-19T07:54:41.673Z,14.37
2019-03-19T07:57:09.246Z,14.90
2019-03-19T07:59:36.817Z,15.17
2019-03-19T08:02:04.359Z,14.57
2019-03-19T08:04:32.901Z,14.33
2019-03-19T08:07:01.292Z,13.97
2019-03-19T08:09:29.075Z,15.63
2019-03-19T08:11:56.664Z,14.50
2019-03-19T08:14:24.207Z,12.97
2019-03-19T08:16:53.245Z,14.07
2019-03-19T08:19:21.105Z,13.37
2019-03-19T08:21:48.856Z,13.67
2019-03-19T08:24:16.297Z,12.57
2019-03-19T08:26:44.481Z,11.00
2019-03-19T08:29:12.375Z,11.43
2019-03-19T08:31:39.941Z,11.87
2019-03-19T08:34:07.777Z,10.93
2019-03-19T08:36:35.632Z,10.77
2019-03-19T08:39:04.518Z,11.47
2019-03-19T08:41:32.409Z,11.47
2019-03-19T08:43:59.945Z,9.23
2019-03-19T08:46:27.430Z,10.13
2019-03-19T08:48:55.002Z,10.20
2019-03-19T08:51:22.863Z,10.93
2019-03-19T08:53:51.105Z,11.13
2019-03-19T08:56:18.901Z,9.13
2019-03-19T08:58:46.432Z,10.23
2019-03-19T09:01:13.994Z,9.53
2019-03-19T09:03:41.569Z,9.17
2019-03-19T09:06:09.496Z,9.30
2019-03-19T09:08:36.999Z,9.90
2019-03-19T09:11:04.839Z,8.70
2019-03-19T09:13:32.700Z,8.40
2019-03-19T09:16:00.230Z,6.97
2019-03-19T09:18:28.293Z,7.97
2019-03-19T09:20:56.117Z,7.73
2019-03-19T09:23:23.708Z,7.27
2019-03-19T09:25:51.221Z,6.80
2019-03-19T09:28:18.849Z,7.27
2019-03-19T09:30:46.442Z,8.13
2019-03-19T09:33:14.403Z,8.07
2019-03-19T09:35:41.974Z,7.43
2019-03-19T09:38:09.580Z,8.00
2019-03-19T09:40:37.140Z,7.43
2019-03-19T09:43:05.022Z,7.60
2019-03-19T09:45:32.612Z,7.80
2019-03-19T09:48:00.244Z,7.33
2019-03-19T09:50:28.132Z,7.37
2019-03-19T09:52:55.593Z,7.17
2019-03-19T09:55:23.094Z,6.80
2019-03-19T09:57:50.686Z,6.43
2019-03-19T10:00:18.400Z,6.83
2019-03-19T10:02:45.964Z,6.20
2019-03-19T10:05:13.517Z,7.03
2019-03-19T10:07:41.290Z,6.27
2019-03-19T10:10:09.765Z,6.77
2019-03-19T10:12:37.400Z,6.60
2019-03-19T10:15:05.482Z,5.80
2019-03-19T10:17:33.387Z,5.53
2019-03-19T10:20:01.029Z,5.00
2019-03-19T10:22:46.129Z,5.07
2019-03-19T10:25:13.991Z,5.00
2019-03-19T10:28:24.560Z,5.97
2019-03-19T10:30:52.019Z,6.13
2019-03-19T10:33:19.544Z,6.07
2019-03-19T10:36:30.409Z,6.43
2019-03-19T10:38:58.376Z,6.00
2019-03-19T10:41:43.091Z,5.93
2019-03-19T10:44:11.001Z,5.37
2019-03-19T10:46:38.583Z,4.80
2019-03-19T10:49:06.075Z,5.43
2019-03-19T10:51:35.214Z,5.43
2019-03-19T10:54:06.663Z,5.37
2019-03-19T10:56:34.403Z,5.80
2019-03-19T10:59:02.674Z,5.67
2019-03-19T11:01:30.398Z,6.03
2019-03-19T11:03:57.956Z,5.77
2019-03-19T11:06:25.481Z,5.20
2019-03-19T11:08:54.147Z,6.00
2019-03-19T11:11:21.726Z,5.93
2019-03-19T11:13:49.242Z,5.53
2019-03-19T11:16:17.970Z,5.67
2019-03-19T11:18:45.483Z,4.70
2019-03-19T11:21:12.959Z,4.60
2019-03-19T11:23:41.556Z,3.40
2019-03-19T11:26:09.252Z,4.17
2019-03-19T11:28:36.837Z,4.43
2019-03-19T11:31:04.484Z,4.50
2019-03-19T11:33:32.407Z,3.83
2019-03-19T11:35:59.951Z,4.40
2019-03-19T11:38:27.596Z,5.03
2019-03-19T11:40:55.574Z,4.10
2019-03-19T11:43:23.062Z,3.40
2019-03-19T11:45:51.734Z,4.03
2019-03-19T11:48:20.457Z,3.67
2019-03-19T11:50:48.349Z,3.33
2019-03-19T11:53:16.002Z,3.93
2019-03-19T11:55:43.552Z,4.13
2019-03-19T11:58:11.091Z,3.67
2019-03-19T12:00:41.257Z,4.07
2019-03-19T12:03:15.533Z,4.33
2019-03-19T12:05:38.164Z,3.60
2019-03-19T12:08:06.044Z,4.17
2019-03-19T12:10:33.629Z,3.40
2019-03-19T12:13:01.080Z,2.27
2019-03-19T12:15:28.701Z,2.47
2019-03-19T12:17:56.590Z,2.80
2019-03-19T12:20:24.394Z,2.80
2019-03-19T12:22:51.968Z,2.77
2019-03-19T12:25:19.508Z,2.77
2019-03-19T12:27:47.066Z,3.47
2019-03-19T12:30:22.258Z,3.60
2019-03-19T12:32:44.448Z,3.50
2019-03-19T12:35:12.019Z,4.00
2019-03-19T12:37:40.613Z,3.93
2019-03-19T12:40:09.329Z,3.50
2019-03-19T12:42:36.914Z,3.90
2019-03-19T12:45:05.274Z,4.17
2019-03-19T12:47:33.210Z,3.83
2019-03-19T12:50:00.750Z,3.57
2019-03-19T12:52:28.304Z,3.17
2019-03-19T12:54:55.950Z,3.53
2019-03-19T12:57:23.486Z,3.30
2019-03-19T12:59:51.186Z,3.07
2019-03-19T13:02:19.587Z,3.30
2019-03-19T13:04:47.427Z,3.53
2019-03-19T13:07:15.005Z,3.07
2019-03-19T13:09:42.544Z,2.83
2019-03-19T13:12:10.017Z,3.77
2019-03-19T13:14:38.688Z,4.00
2019-03-19T13:17:06.584Z,3.90
2019-03-19T13:19:34.516Z,3.80
2019-03-19T13:22:02.280Z,4.33
2019-03-19T13:24:29.821Z,4.60
2019-03-19T13:26:58.582Z,3.43
2019-03-19T13:29:26.426Z,4.27
2019-03-19T13:31:53.970Z,4.00
2019-03-19T13:34:21.637Z,4.90
2019-03-19T13:36:49.490Z,3.93
2019-03-19T13:39:17.068Z,5.23
2019-03-19T13:41:44.912Z,4.70
2019-03-19T13:44:12.469Z,4.23
2019-03-19T13:46:40.063Z,4.47
2019-03-19T13:49:07.989Z,4.53
2019-03-19T13:51:35.460Z,4.27
2019-03-19T13:54:03.821Z,5.13
2019-03-19T13:56:31.342Z,4.73
2019-03-19T13:58:59.217Z,4.63
2019-03-19T14:01:26.942Z,5.87
2019-03-19T14:03:54.508Z,5.17
2019-03-19T14:06:22.028Z,6.10
2019-03-19T14:08:49.496Z,4.60
2019-03-19T14:11:17.357Z,5.60
2019-03-19T14:13:45.223Z,6.27
2019-03-19T14:16:13.001Z,5.30
2019-03-19T14:18:40.574Z,4.70
2019-03-19T14:21:08.120Z,5.03
2019-03-19T14:23:35.683Z,5.50
2019-03-19T14:26:03.467Z,4.40
2019-03-19T14:28:30.956Z,5.40
2019-03-19T14:31:08.055Z,5.20
2019-03-19T14:33:27.890Z,3.90
2019-03-19T14:35:55.499Z,4.70
2019-03-19T14:38:23.058Z,4.77
2019-03-19T14:40:50.570Z,4.10
2019-03-19T14:43:18.152Z,4.10
2019-03-19T14:45:45.700Z,4.53
2019-03-19T14:48:13.282Z,4.70
2019-03-19T14:50:40.962Z,4.57
2019-03-19T14:53:08.543Z,4.80
2019-03-19T14:55:36.492Z,4.67
2019-03-19T14:58:04.664Z,4.50
2019-03-19T15:00:32.685Z,4.40
2019-03-19T15:03:00.181Z,4.33
2019-03-19T15:05:28.060Z,5.20
2019-03-19T15:07:55.579Z,5.67
2019-03-19T15:10:23.748Z,4.33
2019-03-19T15:12:51.290Z,4.30
2019-03-19T15:15:18.902Z,5.00
2019-03-19T15:17:46.787Z,4.53
2019-03-19T15:20:15.390Z,4.77
2019-03-19T15:22:42.958Z,4.37
2019-03-19T15:25:12.027Z,4.57
2019-03-19T15:27:39.636Z,4.70
2019-03-19T15:30:07.257Z,4.07
2019-03-19T15:32:34.765Z,4.60
2019-03-19T15:35:02.367Z,4.40
2019-03-19T15:37:29.929Z,5.10
2019-03-19T15:39:57.493Z,4.43
2019-03-19T15:42:25.040Z,4.90
2019-03-19T15:44:52.600Z,4.70
2019-03-19T15:47:21.280Z,4.90
2019-03-19T15:49:48.774Z,4.50
2019-03-19T15:52:16.415Z,5.00
2019-03-19T15:54:44.014Z,4.47
2019-03-19T15:57:11.606Z,4.47
2019-03-19T15:59:39.143Z,4.67
2019-03-19T16:02:06.729Z,5.03
2019-03-19T16:04:34.307Z,4.60
2019-03-19T16:07:01.955Z,4.00
2019-03-19T16:09:29.501Z,4.00
2019-03-19T16:11:57.361Z,4.53
2019-03-19T16:14:24.917Z,3.70
2019-03-19T16:16:52.509Z,4.13
2019-03-19T16:19:20.100Z,4.07
2019-03-19T16:21:47.771Z,4.50
2019-03-19T16:24:15.380Z,4.27
2019-03-19T16:26:42.945Z,4.47
2019-03-19T16:29:10.532Z,4.63
2019-03-19T16:31:38.082Z,4.73
2019-03-19T16:34:06.048Z,5.43
2019-03-19T16:36:34.751Z,4.97
2019-03-19T16:39:02.268Z,5.40
2019-03-19T16:41:29.839Z,5.77
2019-03-19T16:43:57.378Z,5.53
2019-03-19T16:46:24.966Z,6.07
2019-03-19T16:48:52.519Z,5.87
2019-03-19T16:51:20.077Z,5.50
2019-03-19T16:53:47.564Z,5.40
2019-03-19T16:56:15.143Z,5.93
2019-03-19T16:58:43.038Z,6.57
2019-03-19T17:01:10.541Z,7.57
2019-03-19T17:03:38.365Z,7.93
2019-03-19T17:06:06.332Z,8.17
2019-03-19T17:08:33.938Z,7.50
2019-03-19T17:11:01.586Z,7.80
2019-03-19T17:13:29.183Z,7.13
2019-03-19T17:15:56.769Z,7.80
2019-03-19T17:18:24.627Z,7.90
2019-03-19T17:20:52.121Z,6.77
2019-03-19T17:23:20.091Z,6.33
2019-03-19T17:25:48.780Z,7.20
2019-03-19T17:28:22.353Z,6.20
2019-03-19T17:30:46.115Z,5.80
2019-03-19T17:33:13.810Z,5.37
2019-03-19T17:35:41.742Z,6.77
2019-03-19T17:38:09.315Z,7.07
2019-03-19T17:40:41.495Z,6.90
2019-03-19T17:43:06.599Z,6.90
2019-03-19T17:45:34.194Z,7.30
2019-03-19T17:48:02.143Z,7.20
2019-03-19T17:50:29.759Z,7.53
2019-03-19T17:52:57.388Z,6.67
2019-03-19T17:55:24.918Z,7.57
2019-03-19T17:57:52.450Z,6.80
2019-03-19T18:00:22.485Z,8.07
2019-03-19T18:02:50.310Z,7.90
2019-03-19T18:05:17.890Z,8.23
2019-03-19T18:07:45.438Z,8.00
2019-03-19T18:10:13.124Z,7.17
2019-03-19T18:12:41.023Z,6.73
2019-03-19T18:15:08.586Z,6.93
2019-03-19T18:17:36.182Z,7.83
2019-03-19T18:20:04.298Z,8.03
2019-03-19T18:22:31.859Z,7.77
2019-03-19T18:24:59.450Z,8.83
2019-03-19T18:27:27.006Z,7.77
2019-03-19T18:29:55.580Z,8.38
2019-03-19T18:32:23.235Z,8.60
2019-03-19T18:34:51.155Z,8.97
2019-03-19T18:37:18.800Z,9.23
2019-03-19T18:39:46.356Z,9.20
2019-03-19T18:42:13.916Z,8.77
2019-03-19T18:44:41.465Z,8.40
2019-03-19T18:47:09.030Z,9.07
2019-03-19T18:49:36.482Z,9.83
2019-03-19T18:52:04.054Z,10.90
2019-03-19T18:54:31.996Z,10.10
2019-03-19T18:56:59.571Z,10.57
2019-03-19T18:59:28.138Z,9.77
2019-03-19T19:01:55.678Z,9.70
2019-03-19T19:04:23.172Z,9.53
2019-03-19T19:06:52.587Z,10.70
2019-03-19T19:09:20.151Z,10.23
2019-03-19T19:11:47.709Z,11.47
2019-03-19T19:14:15.269Z,10.27
2019-03-19T19:16:42.943Z,10.73
2019-03-19T19:19:10.764Z,10.90
2019-03-19T19:21:38.307Z,10.13
2019-03-19T19:24:07.272Z,12.13
2019-03-19T19:26:34.822Z,14.03
2019-03-19T19:29:02.690Z,13.33
2019-03-19T19:31:30.628Z,13.53
2019-03-19T19:33:58.503Z,14.70
2019-03-19T19:36:26.150Z,14.27
2019-03-19T19:38:54.036Z,14.40
2019-03-19T19:41:21.645Z,14.23
2019-03-19T19:43:49.179Z,13.33
2019-03-19T19:46:16.739Z,15.17
2019-03-19T19:48:44.274Z,16.57
2019-03-19T19:51:11.878Z,18.97
2019-03-19T19:53:40.481Z,17.23
2019-03-19T19:56:08.327Z,16.67
2019-03-19T19:58:36.244Z,16.47
2019-03-19T20:01:03.774Z,17.17
2019-03-19T20:03:31.365Z,15.77
2019-03-19T20:05:58.910Z,15.63
2019-03-19T20:08:26.515Z,16.23
2019-03-19T20:10:54.116Z,16.90
2019-03-19T20:13:22.000Z,17.60
2019-03-19T20:15:49.600Z,18.30
2019-03-19T20:18:17.144Z,16.30
2019-03-19T20:20:44.643Z,17.83
2019-03-19T20:23:12.516Z,15.80
2019-03-19T20:25:40.091Z,17.13
2019-03-19T20:28:07.629Z,16.57
2019-03-19T20:30:35.303Z,17.07
2019-03-19T20:33:02.913Z,17.70
2019-03-19T20:35:30.548Z,17.73
2019-03-19T20:38:02.977Z,16.17
2019-03-19T20:40:30.821Z,15.87
2019-03-19T20:42:58.620Z,15.37
2019-03-19T20:45:26.202Z,15.47
2019-03-19T20:47:53.771Z,13.10
2019-03-19T20:50:22.461Z,13.83
2019-03-19T20:52:50.036Z,14.30
2019-03-19T20:55:17.588Z,14.07
2019-03-19T20:57:45.189Z,16.13
2019-03-19T21:00:19.290Z,17.93
2019-03-19T21:02:46.924Z,19.37
2019-03-19T21:05:14.435Z,19.37
2019-03-19T21:07:41.995Z,19.53
2019-03-19T21:10:11.222Z,18.70
2019-03-19T21:12:39.226Z,17.17
2019-03-19T21:15:07.150Z,17.37
2019-03-19T21:17:34.959Z,17.53
2019-03-19T21:20:02.561Z,16.83
2019-03-19T21:22:30.163Z,16.63
2019-03-19T21:24:57.726Z,16.80
2019-03-19T21:27:25.306Z,18.27
2019-03-19T21:32:30.639Z,18.40
2019-03-19T21:34:58.931Z,18.57
2019-03-19T21:37:26.486Z,17.53
2019-03-19T21:39:54.092Z,18.67
2019-03-19T21:42:21.612Z,19.13
2019-03-19T21:44:49.201Z,19.13
2019-03-19T21:47:16.730Z,22.47
2019-03-19T21:49:45.296Z,24.63
2019-03-19T21:52:13.251Z,21.70
2019-03-19T21:54:41.214Z,18.43
2019-03-19T21:57:09.004Z,18.00
2019-03-19T21:59:36.704Z,16.57
2019-03-19T22:02:04.308Z,16.53
2019-03-19T22:04:32.237Z,16.87
2019-03-19T22:06:59.792Z,16.03
2019-03-19T22:09:27.644Z,16.27
2019-03-19T22:11:55.232Z,17.03
2019-03-19T22:14:22.749Z,17.57
2019-03-19T22:16:50.570Z,18.97
2019-03-19T22:19:19.698Z,19.20
2019-03-19T22:21:47.254Z,19.00
2019-03-19T22:24:14.791Z,21.37
2019-03-19T22:26:42.470Z,21.87
2019-03-19T22:29:12.578Z,21.97
2019-03-19T22:31:40.737Z,20.60
2019-03-19T22:34:14.168Z,20.10
2019-03-19T22:36:38.318Z,18.87
2019-03-19T22:39:06.610Z,18.50
2019-03-19T22:41:34.149Z,18.53
2019-03-19T22:44:01.723Z,19.17
2019-03-19T22:46:29.570Z,19.00
2019-03-19T22:48:57.031Z,18.33
2019-03-19T22:51:24.583Z,17.73
2019-03-19T22:53:52.142Z,17.73
2019-03-19T22:56:21.054Z,17.00
2019-03-19T22:58:48.630Z,16.97
2019-03-19T23:01:16.513Z,17.67
2019-03-19T23:03:44.133Z,15.97
2019-03-19T23:06:11.696Z,14.90
2019-03-19T23:08:39.546Z,15.77
2019-03-19T23:11:07.122Z,14.50
2019-03-19T23:13:34.563Z,14.53
2019-03-19T23:16:02.474Z,14.30
2019-03-19T23:18:30.039Z,14.80
2019-03-19T23:20:57.955Z,15.83
2019-03-19T23:23:25.525Z,16.67
2019-03-19T23:25:53.289Z,15.43
2019-03-19T23:28:20.846Z,16.60
2019-03-19T23:30:48.392Z,17.83
2019-03-19T23:33:15.960Z,18.40
2019-03-19T23:35:43.469Z,16.63
2019-03-19T23:38:12.269Z,15.27
2019-03-19T23:40:40.076Z,15.80
2019-03-19T23:43:07.630Z,17.00
2019-03-19T23:45:35.166Z,17.97
2019-03-19T23:48:03.090Z,17.77
2019-03-19T23:50:30.919Z,15.33
2019-03-19T23:52:58.521Z,15.13
2019-03-19T23:55:26.057Z,15.50
2019-03-19T23:57:53.624Z,15.43
